createdAt,value
2018-10-07T00:07:26.197Z,15.5
2018-10-07T00:28:47.493Z,15.4
2018-10-07T00:39:01.485Z,15.4
2018-10-07T00:49:15.756Z,15.3
2018-10-07T00:59:31.243Z,15.2
2018-10-07T01:09:43.383Z,15.1
2018-10-07T01:19:57.682Z,15.0
2018-10-07T01:30:42.783Z,14.8
2018-10-07T01:41:28.029Z,14.6
2018-10-07T01:52:13.089Z,14.5
2018-10-07T02:02:26.617Z,14.5
2018-10-07T02:13:13.240Z,14.1
2018-10-07T02:23:57.897Z,14.0
2018-10-07T02:34:11.337Z,14.0
2018-10-07T02:45:31.798Z,13.6
2018-10-07T02:55:43.018Z,13.6
2018-10-07T03:05:57.521Z,13.5
2018-10-07T03:16:11.717Z,13.3
2018-10-07T03:26:25.931Z,13.1
2018-10-07T03:36:38.150Z,12.9
2018-10-07T03:46:52.483Z,12.7
2018-10-07T03:57:06.861Z,12.6
2018-10-07T04:09:22.811Z,12.2
2018-10-07T04:20:50.384Z,12.1
2018-10-07T04:32:37.788Z,12.0
2018-10-07T04:55:36.499Z,11.7
2018-10-07T05:07:09.071Z,11.6
2018-10-07T05:19:41.806Z,11.4
2018-10-07T05:32:11.821Z,11.2
2018-10-07T06:02:38.025Z,10.8
2018-10-07T06:18:45.405Z,10.6
2018-10-07T06:56:50.279Z,10.1
2018-10-07T07:52:45.589Z,11.7
2018-10-07T08:19:36.991Z,17.3
2018-10-07T08:32:15.612Z,20.7
2018-10-07T08:44:37.082Z,23.4
2018-10-07T09:10:41.780Z,27.2
2018-10-07T09:27:11.331Z,28.5
2018-10-07T09:56:25.204Z,28.8
2018-10-07T10:10:37.161Z,29.0
2018-10-07T10:38:25.221Z,26.2
2018-10-07T10:52:07.411Z,26.1
2018-10-07T11:02:24.899Z,26.1
2018-10-07T11:12:38.052Z,25.5
2018-10-07T11:22:51.458Z,25.7
2018-10-07T11:35:46.793Z,26.8
2018-10-07T11:46:02.274Z,26.8
2018-10-07T11:56:18.925Z,26.9
2018-10-07T12:06:33.122Z,27.2
2018-10-07T12:16:44.530Z,27.6
2018-10-07T12:26:58.572Z,28.1
2018-10-07T12:37:44.325Z,28.7
2018-10-07T12:47:58.544Z,28.7
2018-10-07T12:58:12.893Z,28.1
2018-10-07T13:08:59.292Z,27.3
2018-10-07T13:20:48.541Z,26.8
2018-10-07T13:32:17.941Z,26.1
2018-10-07T13:43:57.273Z,25.7
2018-10-07T13:56:12.272Z,25.7
2018-10-07T14:06:26.232Z,25.7
2018-10-07T14:16:40.643Z,25.9
2018-10-07T14:27:59.624Z,25.1
2018-10-07T14:38:13.257Z,25.1
2018-10-07T15:42:48.935Z,21.5
2018-10-07T15:53:03.553Z,20.6
2018-10-07T16:16:16.729Z,18.5
2018-10-07T16:27:27.268Z,17.8
2018-10-07T16:38:18.295Z,17.8
2018-10-07T16:50:59.913Z,16.6
2018-10-07T17:02:06.019Z,16.0
2018-10-07T17:27:17.686Z,14.7
2018-10-07T18:18:20.302Z,12.5
2018-10-07T19:28:25.602Z,10.4
2018-10-07T19:38:43.251Z,10.4
2018-10-07T19:51:41.843Z,9.8
2018-10-07T20:39:21.421Z,9.1
2018-10-07T20:52:31.404Z,8.6
2018-10-07T21:04:17.492Z,8.6
2018-10-07T21:16:14.151Z,8.2
2018-10-07T21:29:15.596Z,7.7
2018-10-07T21:42:46.441Z,7.5
2018-10-07T21:54:53.606Z,7.3
2018-10-07T22:07:01.401Z,7.1
2018-10-07T22:41:21.270Z,6.8
2018-10-07T23:07:02.526Z,6.3
2018-10-07T23:19:18.022Z,6.2
2018-10-07T23:29:34.263Z,6.2
2018-10-07T23:41:50.102Z,5.8
2018-10-07T23:55:52.666Z,5.7
